Time;durP1;ratioP1;P1;durP2;ratioP2;P2;SDS_P1;SDS_P2;PMS_P1;PMS_P2;Temp;Humidity;BMP_temperature;BMP_pressure;BME280_temperature;BME280_humidity;BME280_pressure;Samples;Min_cycle;Max_cycle;Signal;HPM_P1;HPM_P2
2022/09/09 00:02:19;;;;;;;;;2.00;2.00;;;;;17.40;87.91;100590.13;5018395;28;45507;-77
2022/09/09 00:05:00;;;;;;;;;2.33;1.33;;;;;17.46;87.70;100598.31;5018672;28;45669;-78
2022/09/09 00:07:42;;;;;;;;;4.00;2.33;;;;;17.59;88.24;100594.66;5018221;28;45437;-78
2022/09/09 00:10:16;;;;;;;;;3.67;3.67;;;;;17.51;88.12;100596.59;5018483;28;45282;-78
2022/09/09 00:12:50;;;;;;;;;1.67;1.67;;;;;17.54;87.87;100598.03;5024216;28;45493;-77
2022/09/09 00:15:23;;;;;;;;;3.33;2.67;;;;;17.52;87.67;100590.19;5023553;28;46629;-78
2022/09/09 00:18:01;;;;;;;;;2.00;2.00;;;;;17.59;87.67;100602.72;5029154;28;45438;-78
2022/09/09 00:20:40;;;;;;;;;4.00;4.00;;;;;17.59;88.43;100600.03;5018209;28;45608;-78
2022/09/09 00:23:25;;;;;;;;;1.67;1.00;;;;;17.59;87.79;100598.16;5018384;28;45676;-78
2022/09/09 00:26:05;;;;;;;;;3.33;3.33;;;;;17.56;87.59;100585.19;5031013;28;47635;-78
2022/09/09 00:28:36;;;;;;;;;3.33;3.33;;;;;17.53;87.90;100586.47;5018498;28;45268;-78
2022/09/09 00:31:31;;;;;;;;;2.67;2.67;;;;;17.57;88.12;100586.00;5018280;28;45293;-77
2022/09/09 00:34:12;;;;;;;;;2.67;2.67;;;;;17.56;87.98;100584.34;5030836;28;46611;-79
2022/09/09 00:36:38;;;;;;;;;2.33;2.33;;;;;17.49;87.95;100579.91;5018211;28;46222;-79
2022/09/09 00:39:05;;;;;;;;;2.00;2.00;;;;;17.51;87.82;100582.38;5017879;28;45152;-78
2022/09/09 00:41:55;;;;;;;;;3.00;3.00;;;;;17.50;88.06;100589.59;5022844;28;45275;-78
2022/09/09 00:44:53;;;;;;;;;1.33;1.33;;;;;17.50;88.04;100584.22;5021899;28;45317;-78
2022/09/09 00:47:37;;;;;;;;;2.00;2.00;;;;;17.51;88.74;100577.00;5026318;28;46635;-78
2022/09/09 00:50:40;;;;;;;;;2.33;2.00;;;;;17.50;88.54;100578.00;5023420;28;45493;-78
2022/09/09 00:53:24;;;;;;;;;3.00;3.00;;;;;17.48;88.41;100585.50;5023877;28;45327;-78
2022/09/09 00:55:56;;;;;;;;;2.67;2.00;;;;;17.45;88.65;100581.38;5017980;28;45419;-79
2022/09/09 00:58:21;;;;;;;;;2.33;2.00;;;;;17.40;88.56;100571.31;5030356;28;47234;-77
2022/09/09 01:00:56;;;;;;;;;3.00;2.33;;;;;17.42;88.33;100569.22;5017783;28;45349;-79
2022/09/09 01:03:33;;;;;;;;;5.33;3.33;;;;;17.43;88.24;100570.03;5017510;28;45340;-78
2022/09/09 01:06:04;;;;;;;;;2.00;2.00;;;;;17.46;87.74;100572.28;5021066;28;47238;-77
2022/09/09 01:08:46;;;;;;;;;3.00;2.00;;;;;17.44;87.88;100571.69;5016261;28;48279;-78
2022/09/09 01:11:21;;;;;;;;;3.00;2.00;;;;;17.37;87.23;100563.72;5022202;28;45192;-78
2022/09/09 01:13:53;;;;;;;;;4.67;2.67;;;;;17.44;87.38;100571.69;5032762;27;45431;-79
2022/09/09 01:16:18;;;;;;;;;2.00;2.00;;;;;17.41;87.94;100567.59;5023074;28;45518;-79
2022/09/09 01:18:48;;;;;;;;;3.00;2.00;;;;;17.46;88.03;100569.59;5022447;28;46325;-78
2022/09/09 01:21:13;;;;;;;;;2.00;2.00;;;;;17.45;87.41;100575.19;5017760;28;45228;-78
2022/09/09 01:24:04;;;;;;;;;3.33;3.33;;;;;17.42;87.20;100568.41;5017590;28;45429;-78
2022/09/09 01:26:41;;;;;;;;;4.33;3.67;;;;;17.36;86.86;100556.69;5017672;28;45446;-79
2022/09/09 01:29:13;;;;;;;;;1.00;1.00;;;;;17.40;87.30;100568.63;5029098;28;47179;-78
2022/09/09 01:31:42;;;;;;;;;1.00;1.00;;;;;17.35;87.55;100564.97;5017362;28;45318;-78
2022/09/09 01:34:15;;;;;;;;;1.00;1.00;;;;;17.38;87.61;100567.19;5017336;28;45357;-78
2022/09/09 01:37:05;;;;;;;;;0.33;0.33;;;;;17.32;87.65;100557.34;5024796;28;46355;-78
2022/09/09 01:39:33;;;;;;;;;2.00;2.00;;;;;17.31;87.23;100563.78;5032434;28;48302;-78
2022/09/09 01:41:59;;;;;;;;;5.00;3.00;;;;;17.30;87.30;100557.56;5015999;28;45321;-78
2022/09/09 01:44:26;;;;;;;;;3.67;2.00;;;;;17.28;87.51;100571.25;5017306;28;45571;-78
2022/09/09 01:46:51;;;;;;;;;3.67;3.00;;;;;17.23;87.34;100560.34;5017300;28;45525;-78
2022/09/09 01:52:58;;;;;;;;;2.00;0.67;;;;;17.36;87.17;100558.56;5017302;28;45370;-79
2022/09/09 01:55:39;;;;;;;;;2.67;2.67;;;;;17.37;87.48;100549.44;5017162;28;45312;-79
2022/09/09 01:58:30;;;;;;;;;4.33;1.67;;;;;17.40;87.05;100549.84;5028849;28;47454;-78
2022/09/09 02:01:11;;;;;;;;;3.00;2.00;;;;;17.38;86.47;100545.72;5031952;28;47257;-78
2022/09/09 02:03:37;;;;;;;;;3.00;3.00;;;;;17.39;86.30;100544.69;5117018;27;45415;-78
2022/09/09 02:06:30;;;;;;;;;2.33;2.00;;;;;18.05;86.30;100552.09;5017439;28;45302;-78
2022/09/09 02:08:59;;;;;;;;;4.33;4.33;;;;;17.78;85.58;100558.66;5016902;28;45325;-78
2022/09/09 02:11:27;;;;;;;;;2.33;1.00;;;;;18.02;85.05;100553.38;5016850;28;46147;-79
2022/09/09 02:13:57;;;;;;;;;3.67;3.67;;;;;17.86;84.79;100549.47;5016001;28;45318;-78
2022/09/09 02:16:25;;;;;;;;;3.33;3.33;;;;;18.29;84.29;100536.84;5041702;28;45353;-78
2022/09/09 02:19:16;;;;;;;;;4.00;2.00;;;;;18.11;84.80;100545.81;5020799;28;45315;-78
2022/09/09 02:21:45;;;;;;;;;2.00;2.00;;;;;17.58;84.77;100542.78;5016953;28;45546;-78
2022/09/09 02:24:14;;;;;;;;;2.00;2.00;;;;;17.55;85.66;100548.63;5016648;28;45340;-77
2022/09/09 02:26:42;;;;;;;;;3.00;3.00;;;;;17.54;85.78;100545.09;5017009;28;45336;-77
2022/09/09 02:29:27;;;;;;;;;5.00;2.00;;;;;17.51;86.06;100553.59;5016570;28;45399;-78
2022/09/09 02:31:56;;;;;;;;;2.00;2.00;;;;;17.53;86.18;100548.00;5026274;28;47276;-78
2022/09/09 02:34:24;;;;;;;;;0.67;0.67;;;;;17.49;86.22;100538.78;5018629;28;45372;-78
2022/09/09 02:36:50;;;;;;;;;1.00;1.00;;;;;17.52;86.64;100539.16;5016850;28;45145;-78
2022/09/09 02:39:15;;;;;;;;;2.00;2.00;;;;;17.52;86.59;100547.22;5016383;28;45312;-77
2022/09/09 02:41:47;;;;;;;;;3.33;3.33;;;;;17.44;86.04;100534.06;5015375;28;47054;-78
2022/09/09 02:44:16;;;;;;;;;4.33;3.33;;;;;17.48;86.11;100537.13;5016463;28;45433;-77
2022/09/09 02:46:44;;;;;;;;;5.67;4.00;;;;;17.53;86.23;100538.09;5016506;28;45328;-78
2022/09/09 02:49:25;;;;;;;;;2.33;2.00;;;;;17.50;86.22;100537.72;5016586;28;45262;-79
2022/09/09 02:52:17;;;;;;;;;3.00;3.00;;;;;17.55;86.50;100532.50;5032733;28;48479;-79
2022/09/09 02:54:43;;;;;;;;;3.00;3.00;;;;;17.52;86.31;100530.25;5023001;28;45330;-78
2022/09/09 02:57:14;;;;;;;;;4.67;2.67;;;;;17.55;86.65;100537.88;5034373;28;45336;-76
2022/09/09 02:59:41;;;;;;;;;4.33;3.00;;;;;17.52;86.59;100538.31;5024235;28;45533;-77
2022/09/09 03:02:06;;;;;;;;;6.00;5.00;;;;;17.47;86.15;100525.56;5032829;28;47129;-78
2022/09/09 03:04:32;;;;;;;;;4.67;2.67;;;;;17.46;86.59;100532.00;5026076;28;45344;-77
2022/09/09 03:06:58;;;;;;;;;2.33;2.33;;;;;17.46;86.69;100537.38;5016431;28;45781;-77
2022/09/09 03:09:23;;;;;;;;;3.00;2.00;;;;;17.48;86.05;100534.44;5022959;28;47170;-78
2022/09/09 03:11:49;;;;;;;;;3.00;2.33;;;;;17.41;86.25;100519.22;5021765;28;45365;-78
2022/09/09 03:14:15;;;;;;;;;4.33;3.33;;;;;17.43;86.42;100521.69;5016134;28;45430;-77
2022/09/09 03:16:42;;;;;;;;;4.00;4.00;;;;;17.44;86.91;100528.69;5024915;28;45400;-77
2022/09/09 03:19:08;;;;;;;;;3.00;3.00;;;;;17.49;86.49;100542.28;5017521;28;45410;-78
2022/09/09 03:21:35;;;;;;;;;3.33;3.33;;;;;17.46;86.98;100534.69;5015930;28;45395;-77
2022/09/09 03:24:03;;;;;;;;;5.67;3.00;;;;;17.46;87.04;100532.00;5015812;28;45289;-77
2022/09/09 03:26:28;;;;;;;;;3.67;3.00;;;;;17.52;86.43;100549.91;5017758;28;45275;-78
2022/09/09 03:28:54;;;;;;;;;2.00;2.00;;;;;17.57;86.92;100543.81;5018889;28;45571;-77
2022/09/09 03:31:19;;;;;;;;;4.00;3.67;;;;;17.59;86.75;100548.97;5019019;28;45581;-78
2022/09/09 03:33:44;;;;;;;;;2.00;2.00;;;;;17.54;86.77;100547.78;5030420;28;45467;-77
2022/09/09 03:36:11;;;;;;;;;2.67;2.00;;;;;17.58;86.97;100550.84;5020602;28;45404;-78
2022/09/09 03:38:36;;;;;;;;;6.00;4.00;;;;;17.60;86.25;100547.94;5018917;28;45651;-78
2022/09/09 03:41:02;;;;;;;;;3.00;3.00;;;;;17.61;86.33;100554.94;5018358;28;53318;-78
2022/09/09 03:43:29;;;;;;;;;2.67;2.67;;;;;17.61;86.56;100553.09;5017575;28;45325;-77
2022/09/09 03:45:57;;;;;;;;;4.00;2.00;;;;;17.62;86.25;100543.97;5018668;28;45430;-78
2022/09/09 03:48:24;;;;;;;;;3.00;3.00;;;;;17.64;86.21;100552.66;5024594;28;47209;-78
2022/09/09 03:50:51;;;;;;;;;4.67;3.00;;;;;17.62;86.75;100545.84;5034475;28;45520;-77
2022/09/09 03:53:19;;;;;;;;;3.33;2.33;;;;;17.62;86.81;100541.28;5022798;28;45478;-78
2022/09/09 03:55:50;;;;;;;;;3.00;3.00;;;;;17.65;86.58;100538.16;5019009;28;45426;-78
2022/09/09 03:58:18;;;;;;;;;2.00;2.00;;;;;17.67;86.76;100532.56;5018421;28;45480;-78
2022/09/09 04:00:52;;;;;;;;;1.00;1.00;;;;;17.62;86.46;100527.03;5018379;28;46383;-77
2022/09/09 04:03:18;;;;;;;;;4.67;2.67;;;;;17.57;86.30;100533.06;5027698;28;45754;-78
2022/09/09 04:05:43;;;;;;;;;2.67;2.67;;;;;17.52;86.50;100528.41;5018448;28;45344;-77
2022/09/09 04:08:09;;;;;;;;;3.33;3.33;;;;;17.49;86.37;100528.84;5018407;28;45732;-78
2022/09/09 04:10:37;;;;;;;;;4.33;4.00;;;;;17.50;85.95;100533.19;5018498;28;46308;-77
2022/09/09 04:13:04;;;;;;;;;3.00;3.00;;;;;17.49;86.20;100538.78;5018446;28;45329;-78
2022/09/09 04:15:31;;;;;;;;;3.67;2.67;;;;;17.40;86.01;100524.81;5018371;28;46376;-78
2022/09/09 04:17:56;;;;;;;;;3.67;3.00;;;;;17.40;85.91;100525.66;5028949;28;45362;-77
2022/09/09 04:20:22;;;;;;;;;3.67;3.33;;;;;17.41;86.14;100537.22;5027807;28;47150;-78
2022/09/09 04:22:47;;;;;;;;;4.00;2.67;;;;;17.41;85.74;100542.56;5018509;28;45392;-78
2022/09/09 04:25:13;;;;;;;;;2.33;2.00;;;;;17.40;85.90;100535.56;5018405;28;45399;-78
2022/09/09 04:27:39;;;;;;;;;5.00;4.00;;;;;17.40;86.01;100520.28;5018259;28;45308;-77
2022/09/09 04:30:06;;;;;;;;;4.00;3.00;;;;;17.39;86.09;100525.88;5023799;28;48036;-77
2022/09/09 04:32:33;;;;;;;;;4.00;4.00;;;;;17.41;86.55;100527.28;5018031;28;45357;-78
2022/09/09 04:34:58;;;;;;;;;6.33;3.00;;;;;17.36;85.75;100523.66;5018246;28;45273;-78
2022/09/09 04:37:24;;;;;;;;;5.33;4.67;;;;;17.31;86.22;100528.84;5017443;28;45214;-77
2022/09/09 04:39:50;;;;;;;;;3.00;2.00;;;;;17.52;86.20;100530.25;5020260;28;46704;-77
2022/09/09 04:42:16;;;;;;;;;3.67;3.00;;;;;17.24;86.35;100523.56;5018212;28;45400;-77
2022/09/09 04:44:41;;;;;;;;;4.33;4.00;;;;;17.24;86.27;100512.84;5018065;28;45305;-78
2022/09/09 04:47:07;;;;;;;;;3.33;3.00;;;;;17.18;86.54;100517.22;5027150;28;50437;-78
2022/09/09 04:49:32;;;;;;;;;7.00;4.00;;;;;17.16;86.74;100519.31;5019649;28;46830;-78
2022/09/09 04:51:57;;;;;;;;;3.33;3.00;;;;;17.18;86.03;100530.63;5031980;28;46127;-78
2022/09/09 04:54:22;;;;;;;;;2.33;2.33;;;;;17.17;86.18;100529.00;5023604;28;49369;-78
2022/09/09 04:56:50;;;;;;;;;5.00;5.00;;;;;17.12;86.86;100526.19;5016415;28;50945;-77
2022/09/09 04:59:16;;;;;;;;;7.00;5.33;;;;;17.15;86.97;100531.13;5017849;28;46549;-77
2022/09/09 05:01:42;;;;;;;;;4.00;3.33;;;;;17.16;86.91;100538.91;5017535;28;45279;-78
2022/09/09 05:04:08;;;;;;;;;2.67;2.67;;;;;17.12;87.25;100532.34;5023782;28;45384;-77
2022/09/09 05:06:33;;;;;;;;;3.00;3.00;;;;;17.16;86.97;100530.84;5029305;28;45572;-77
2022/09/09 05:09:00;;;;;;;;;3.00;3.00;;;;;17.19;86.92;100539.53;5019411;28;46116;-78
2022/09/09 05:11:27;;;;;;;;;4.67;3.00;;;;;17.18;86.80;100529.84;5030091;28;45396;-78
2022/09/09 05:13:53;;;;;;;;;3.33;2.00;;;;;17.20;86.72;100544.66;5017436;27;45385;-77
2022/09/09 05:16:20;;;;;;;;;5.00;3.67;;;;;17.19;87.11;100532.31;5024601;28;45514;-77
2022/09/09 05:18:46;;;;;;;;;5.00;4.00;;;;;17.23;87.02;100546.09;5019449;28;46351;-78
2022/09/09 05:21:13;;;;;;;;;3.00;2.00;;;;;17.28;86.50;100540.88;5017771;28;45440;-78
2022/09/09 05:23:38;;;;;;;;;3.00;2.33;;;;;17.23;86.47;100532.66;5019006;28;45199;-78
2022/09/09 05:26:05;;;;;;;;;6.33;5.00;;;;;17.16;87.04;100514.75;5029332;28;45516;-78
2022/09/09 05:28:31;;;;;;;;;4.67;4.67;;;;;17.20;87.29;100539.31;5017372;28;45425;-78
2022/09/09 05:31:03;;;;;;;;;6.00;5.00;;;;;17.15;86.98;100529.22;5038984;28;45342;-78
2022/09/09 05:33:29;;;;;;;;;4.67;4.33;;;;;17.12;87.23;100532.34;5024542;28;45299;-78
2022/09/09 05:35:57;;;;;;;;;3.00;3.00;;;;;17.19;87.25;100536.84;5017270;28;45251;-77
2022/09/09 05:38:24;;;;;;;;;5.33;4.67;;;;;17.15;86.77;100544.53;5017330;28;45513;-78
2022/09/09 05:40:50;;;;;;;;;5.00;5.00;;;;;17.16;87.50;100555.03;5033721;28;46123;-78
2022/09/09 05:43:16;;;;;;;;;5.67;5.00;;;;;17.15;87.06;100549.91;5032792;28;45361;-78
2022/09/09 05:45:41;;;;;;;;;6.00;5.00;;;;;17.19;87.12;100559.16;5017171;28;45443;-78
2022/09/09 05:48:07;;;;;;;;;4.67;4.33;;;;;17.40;87.65;100549.00;5016993;28;54073;-78
2022/09/09 05:50:32;;;;;;;;;4.33;4.33;;;;;17.25;86.50;100549.38;5028441;28;45457;-77
2022/09/09 05:52:58;;;;;;;;;6.00;5.33;;;;;17.26;87.29;100559.06;5036071;28;45291;-78
2022/09/09 05:55:25;;;;;;;;;4.33;4.00;;;;;17.29;87.08;100561.31;5017891;28;45292;-78
2022/09/09 05:57:51;;;;;;;;;3.00;3.00;;;;;17.31;87.16;100551.19;5017108;28;46049;-79
2022/09/09 06:00:17;;;;;;;;;4.67;4.67;;;;;17.29;86.85;100543.34;5017144;28;45325;-79
2022/09/09 06:02:43;;;;;;;;;6.00;4.00;;;;;17.33;87.15;100545.59;5017163;28;45537;-78
2022/09/09 06:05:10;;;;;;;;;9.00;6.00;;;;;17.29;87.29;100537.97;5017061;28;45365;-79
2022/09/09 06:07:35;;;;;;;;;4.33;4.33;;;;;17.38;87.09;100551.09;5027604;28;45616;-78
2022/09/09 06:10:01;;;;;;;;;3.00;3.00;;;;;17.38;87.21;100532.28;5017423;28;45317;-78
2022/09/09 06:12:26;;;;;;;;;4.00;4.00;;;;;17.45;87.72;100535.69;5016866;28;45373;-78
2022/09/09 06:14:51;;;;;;;;;4.00;4.00;;;;;17.50;87.36;100548.47;5017119;28;45570;-78
2022/09/09 06:17:17;;;;;;;;;4.00;4.00;;;;;17.57;87.58;100549.19;5027523;28;45813;-79
2022/09/09 06:19:42;;;;;;;;;3.33;3.33;;;;;17.58;87.56;100541.97;5030417;28;48204;-78
2022/09/09 06:22:09;;;;;;;;;3.00;3.00;;;;;17.70;87.28;100545.53;5031098;28;45263;-79
2022/09/09 06:24:34;;;;;;;;;6.00;3.33;;;;;17.69;86.89;100549.25;5032100;28;47080;-78
2022/09/09 06:27:00;;;;;;;;;4.33;4.00;;;;;17.77;86.82;100556.19;5019224;28;47508;-78
2022/09/09 06:29:25;;;;;;;;;5.00;4.00;;;;;17.80;86.33;100536.91;5016761;28;47463;-78
2022/09/09 06:31:50;;;;;;;;;4.00;4.00;;;;;17.86;86.02;100536.00;5029279;28;45341;-78
2022/09/09 06:34:16;;;;;;;;;5.00;5.00;;;;;17.90;86.12;100553.31;5016892;28;45365;-78
2022/09/09 06:36:42;;;;;;;;;6.67;3.33;;;;;17.91;86.09;100530.78;5016655;28;45471;-78
2022/09/09 06:39:10;;;;;;;;;4.00;4.00;;;;;18.04;85.97;100553.97;5016635;28;45409;-77
2022/09/09 06:41:37;;;;;;;;;6.00;5.00;;;;;18.12;85.62;100552.03;5028332;28;45435;-79
2022/09/09 06:44:03;;;;;;;;;6.00;5.33;;;;;18.15;85.52;100547.03;5035636;28;45416;-77
2022/09/09 06:46:32;;;;;;;;;5.33;3.67;;;;;18.16;85.31;100551.34;5035671;28;45410;-78
2022/09/09 06:48:59;;;;;;;;;3.33;3.00;;;;;18.10;85.28;100551.41;5035781;28;45301;-79
2022/09/09 06:51:30;;;;;;;;;7.33;5.67;;;;;18.19;85.54;100557.31;5035884;28;45333;-77
2022/09/09 06:53:58;;;;;;;;;5.00;4.33;;;;;18.27;84.80;100554.28;5034183;28;46397;-77
2022/09/09 06:56:29;;;;;;;;;3.00;3.00;;;;;18.33;84.88;100547.16;5032934;28;46031;-79
2022/09/09 06:58:58;;;;;;;;;5.00;4.00;;;;;18.37;84.66;100556.41;5016575;28;45358;-78
2022/09/09 07:01:26;;;;;;;;;6.00;4.67;;;;;18.38;84.56;100552.69;5027384;28;45495;-78
2022/09/09 07:03:54;;;;;;;;;3.00;3.00;;;;;18.41;84.44;100549.53;5016450;28;45521;-77
2022/09/09 07:06:28;;;;;;;;;5.00;5.00;;;;;18.45;84.78;100545.31;5016263;28;46224;-78
2022/09/09 07:09:05;;;;;;;;;3.33;3.33;;;;;18.48;84.95;100552.94;5015800;28;45195;-77
2022/09/09 07:11:37;;;;;;;;;5.00;3.33;;;;;18.58;84.96;100559.63;5027967;28;45403;-77
2022/09/09 07:14:03;;;;;;;;;6.00;4.00;;;;;18.60;83.88;100554.81;5026216;28;46420;-76
2022/09/09 07:16:29;;;;;;;;;6.67;3.67;;;;;18.60;83.95;100546.72;5015898;28;49741;-77
2022/09/09 07:18:57;;;;;;;;;7.33;4.00;;;;;18.69;83.49;100561.50;5018512;28;45258;-77
2022/09/09 07:21:26;;;;;;;;;3.00;2.00;;;;;18.70;83.54;100559.63;5029606;28;45378;-77
2022/09/09 07:23:51;;;;;;;;;4.00;3.00;;;;;18.68;83.10;100554.47;5014610;28;46063;-77
2022/09/09 07:26:19;;;;;;;;;6.33;4.33;;;;;18.81;83.11;100561.50;5015756;28;46195;-78
2022/09/09 07:28:45;;;;;;;;;3.67;3.33;;;;;18.89;82.85;100565.72;5025697;28;45434;-78
2022/09/09 07:31:19;;;;;;;;;4.00;4.00;;;;;19.00;83.19;100561.34;5024530;28;45491;-77
2022/09/09 07:33:46;;;;;;;;;2.67;2.67;;;;;19.13;82.13;100576.50;5031175;28;46000;-77
2022/09/09 07:36:23;;;;;;;;;3.67;3.33;;;;;19.12;81.38;100567.59;5032080;28;47076;-78
2022/09/09 07:38:56;;;;;;;;;3.00;3.00;;;;;19.16;81.09;100563.38;5021741;28;45560;-77
2022/09/09 07:41:31;;;;;;;;;3.00;3.00;;;;;19.16;80.80;100562.56;5027533;28;45340;-76
2022/09/09 07:43:56;;;;;;;;;4.00;2.67;;;;;19.15;80.93;100563.59;5015733;28;45292;-77
2022/09/09 07:46:25;;;;;;;;;2.00;2.00;;;;;19.19;80.36;100567.47;5015180;28;45360;-78
2022/09/09 07:48:53;;;;;;;;;3.67;3.67;;;;;19.26;80.59;100575.41;5024742;28;45412;-79
2022/09/09 07:51:22;;;;;;;;;5.00;3.00;;;;;19.20;80.38;100560.19;5030588;28;45383;-81
2022/09/09 07:53:48;;;;;;;;;5.00;3.67;;;;;19.25;80.41;100574.59;5030288;28;46423;-78
2022/09/09 07:56:17;;;;;;;;;4.00;4.00;;;;;19.35;80.27;100587.47;5030740;28;48238;-77
2022/09/09 07:58:45;;;;;;;;;3.00;2.33;;;;;19.35;80.04;100576.69;5015359;28;45389;-77
2022/09/09 08:01:14;;;;;;;;;4.33;4.33;;;;;19.45;79.99;100584.16;5021822;28;45454;-75
2022/09/09 08:03:39;;;;;;;;;5.33;4.67;;;;;19.51;79.31;100580.53;5015793;28;45547;-76
2022/09/09 08:06:07;;;;;;;;;6.00;3.33;;;;;19.61;79.03;100579.09;5016294;28;45293;-76
2022/09/09 08:08:34;;;;;;;;;5.00;5.00;;;;;19.62;78.58;100580.72;5016511;28;45459;-76
2022/09/09 08:11:08;;;;;;;;;5.00;4.00;;;;;19.74;78.53;100588.78;5022164;28;45426;-77
2022/09/09 08:13:36;;;;;;;;;5.00;3.00;;;;;19.76;77.87;100590.19;5023911;28;45497;-77
2022/09/09 08:16:21;;;;;;;;;3.00;1.33;;;;;19.76;78.19;100598.28;5022761;28;46596;-78
2022/09/09 08:18:47;;;;;;;;;5.00;4.67;;;;;19.69;78.90;100589.50;5032776;28;45641;-77
2022/09/09 08:21:17;;;;;;;;;2.33;2.33;;;;;19.63;78.96;100609.34;5024307;28;45219;-78
2022/09/09 08:23:44;;;;;;;;;2.67;2.67;;;;;19.43;79.25;100599.78;5017410;28;45531;-77
2022/09/09 08:26:13;;;;;;;;;4.00;4.00;;;;;19.30;81.08;100600.81;5030005;28;48430;-78
2022/09/09 08:28:39;;;;;;;;;5.33;3.00;;;;;19.24;80.30;100609.88;5053472;28;45437;-78
2022/09/09 08:31:11;;;;;;;;;2.67;2.67;;;;;19.17;80.89;100613.50;5025264;28;45357;-78
2022/09/09 08:33:38;;;;;;;;;3.33;3.33;;;;;19.11;81.14;100606.38;5017980;28;45510;-77
2022/09/09 08:36:04;;;;;;;;;4.67;4.67;;;;;19.12;81.06;100610.69;5018531;28;46513;-77
2022/09/09 08:38:30;;;;;;;;;3.33;3.33;;;;;19.06;81.35;100611.59;5033081;28;45262;-76
2022/09/09 08:41:10;;;;;;;;;4.67;3.00;;;;;19.10;81.04;100620.06;5039216;28;45312;-76
2022/09/09 08:43:36;;;;;;;;;6.67;4.00;;;;;19.07;81.36;100617.81;5035233;28;45378;-79
2022/09/09 08:46:14;;;;;;;;;5.00;3.67;;;;;19.11;80.92;100621.69;5037671;28;48201;-77
2022/09/09 08:48:58;;;;;;;;;3.00;2.33;;;;;19.14;80.66;100622.06;5026366;28;45255;-79
2022/09/09 08:51:28;;;;;;;;;5.00;3.00;;;;;19.12;80.34;100626.00;5032405;28;45408;-78
2022/09/09 08:53:58;;;;;;;;;4.67;3.67;;;;;19.16;80.25;100629.91;5032012;28;45222;-78
2022/09/09 08:56:25;;;;;;;;;4.00;3.00;;;;;19.16;80.24;100621.81;5018317;28;46031;-78
2022/09/09 08:58:53;;;;;;;;;3.67;3.67;;;;;19.25;79.77;100616.91;5017720;28;45193;-78
2022/09/09 09:01:35;;;;;;;;;3.00;3.00;;;;;19.44;80.00;100622.97;5018209;28;45236;-79
2022/09/09 09:04:24;;;;;;;;;3.33;3.33;;;;;19.54;79.86;100606.19;5031112;28;46374;-78
2022/09/09 09:07:14;;;;;;;;;3.00;3.00;;;;;19.70;79.77;100620.81;5017443;28;46614;-80
2022/09/09 09:10:02;;;;;;;;;3.00;3.00;;;;;19.84;79.19;100612.44;5017902;28;45398;-78
2022/09/09 09:12:36;;;;;;;;;3.00;1.00;;;;;19.88;79.03;100616.28;5017509;28;45258;-79
2022/09/09 09:15:05;;;;;;;;;3.67;2.33;;;;;19.92;77.87;100620.97;5018144;28;45545;-79
2022/09/09 09:17:33;;;;;;;;;2.00;2.00;;;;;19.99;77.15;100631.59;5022794;28;45544;-79
2022/09/09 09:19:59;;;;;;;;;3.67;3.67;;;;;19.97;76.42;100635.59;5037285;28;45388;-78
2022/09/09 09:22:42;;;;;;;;;3.00;3.00;;;;;20.01;76.86;100623.31;5025652;28;45406;-79
2022/09/09 09:25:18;;;;;;;;;4.67;4.33;;;;;20.02;76.16;100631.16;5024421;28;45276;-77
2022/09/09 09:27:57;;;;;;;;;6.00;3.00;;;;;20.01;75.88;100634.91;5034074;28;46583;-79
2022/09/09 09:30:26;;;;;;;;;2.00;2.00;;;;;20.11;75.94;100641.56;5026025;28;45506;-79
2022/09/09 09:32:58;;;;;;;;;2.33;2.00;;;;;20.24;75.56;100649.38;5030896;28;45416;-78
2022/09/09 09:35:23;;;;;;;;;3.00;2.00;;;;;20.29;74.95;100641.38;5019131;28;46483;-79
2022/09/09 09:37:49;;;;;;;;;3.00;3.00;;;;;20.38;75.49;100644.47;5020171;28;46158;-79
2022/09/09 09:40:20;;;;;;;;;3.33;3.33;;;;;20.60;74.95;100653.75;5024525;28;45265;-79
2022/09/09 09:42:53;;;;;;;;;5.00;3.00;;;;;20.71;74.53;100646.66;5018961;28;45327;-79
2022/09/09 09:45:48;;;;;;;;;2.00;2.00;;;;;20.81;73.58;100661.13;5024294;28;45999;-79
2022/09/09 09:48:14;;;;;;;;;2.00;1.00;;;;;20.75;73.80;100648.63;5042627;27;47234;-78
2022/09/09 09:51:10;;;;;;;;;0.67;0.67;;;;;20.77;72.06;100656.50;5034652;28;45304;-78
2022/09/09 09:53:38;;;;;;;;;3.00;3.00;;;;;20.74;73.08;100657.78;5019371;28;45304;-78
2022/09/09 09:56:13;;;;;;;;;5.00;4.00;;;;;20.77;72.61;100667.28;5019829;28;45288;-78
2022/09/09 09:58:38;;;;;;;;;3.67;3.33;;;;;20.83;72.96;100651.97;5034749;28;47424;-78
2022/09/09 10:01:04;;;;;;;;;3.67;3.33;;;;;20.84;72.36;100649.03;5028955;28;45212;-79
2022/09/09 10:03:32;;;;;;;;;3.00;2.67;;;;;20.91;72.45;100665.09;5027603;28;45229;-79
2022/09/09 10:05:58;;;;;;;;;4.00;3.00;;;;;20.90;70.79;100655.38;5022039;28;45771;-78
2022/09/09 10:08:27;;;;;;;;;2.00;2.00;;;;;20.99;71.48;100659.28;5017492;28;45382;-80
2022/09/09 10:11:09;;;;;;;;;5.33;2.00;;;;;21.03;72.26;100665.84;5019932;28;45389;-79
2022/09/09 10:14:08;;;;;;;;;3.67;3.67;;;;;20.97;71.15;100656.00;5017177;28;45276;-78
2022/09/09 10:17:03;;;;;;;;;3.67;2.33;;;;;20.86;71.87;100651.50;5018709;28;47362;-80
2022/09/09 10:19:35;;;;;;;;;2.67;1.67;;;;;20.89;71.41;100664.50;5017368;28;46184;-78
2022/09/09 10:22:27;;;;;;;;;5.00;5.00;;;;;21.00;71.35;100671.72;5031062;28;45264;-78
2022/09/09 10:25:02;;;;;;;;;2.67;2.67;;;;;21.15;71.16;100681.13;5028489;28;45632;-78
2022/09/09 10:27:51;;;;;;;;;4.00;2.67;;;;;21.25;71.67;100673.16;5016720;28;45474;-79
2022/09/09 10:30:19;;;;;;;;;4.00;4.00;;;;;21.43;70.92;100673.97;5027476;28;47358;-80
2022/09/09 10:32:55;;;;;;;;;4.00;4.00;;;;;21.56;70.68;100668.22;5018175;28;45421;-79
2022/09/09 10:35:51;;;;;;;;;2.00;2.00;;;;;21.63;68.06;100676.13;5016871;28;45365;-79
2022/09/09 10:38:36;;;;;;;;;2.00;2.00;;;;;21.60;68.16;100667.69;5043153;28;46062;-78
2022/09/09 10:41:13;;;;;;;;;2.00;2.00;;;;;21.53;68.79;100668.72;5037500;28;47058;-79
2022/09/09 10:43:51;;;;;;;;;3.00;3.00;;;;;21.53;69.18;100678.69;5025523;28;45981;-78
2022/09/09 10:46:29;;;;;;;;;4.33;4.00;;;;;21.49;67.88;100670.25;5032062;28;45363;-80
2022/09/09 10:48:57;;;;;;;;;2.67;2.67;;;;;21.59;67.41;100671.47;5027147;27;47216;-79
2022/09/09 10:51:28;;;;;;;;;4.00;4.00;;;;;21.64;66.59;100671.53;5032309;28;45656;-79
2022/09/09 10:54:15;;;;;;;;;5.00;4.00;;;;;21.74;67.96;100671.69;5028316;28;45293;-78
2022/09/09 10:56:49;;;;;;;;;1.33;1.33;;;;;21.94;66.49;100649.47;5018409;28;45345;-78
2022/09/09 10:59:22;;;;;;;;;4.67;3.00;;;;;22.11;66.51;100655.88;5035150;28;45791;-78
2022/09/09 11:01:53;;;;;;;;;3.00;3.00;;;;;22.17;66.25;100654.84;5019392;28;47416;-77
2022/09/09 11:04:26;;;;;;;;;2.67;1.67;;;;;22.38;64.86;100665.88;5020978;28;45438;-77
2022/09/09 11:06:55;;;;;;;;;3.00;2.67;;;;;22.41;64.40;100666.19;5017340;28;45410;-76
2022/09/09 11:09:32;;;;;;;;;2.00;2.00;;;;;22.36;64.92;100663.47;5016578;28;45348;-76
2022/09/09 11:12:02;;;;;;;;;1.75;1.75;;;;;22.44;64.55;100659.44;5016654;28;45663;-76
2022/09/09 11:14:42;;;;;;;;;4.00;2.33;;;;;22.57;64.14;100659.06;5022597;28;45685;-77
2022/09/09 11:17:20;;;;;;;;;1.33;1.33;;;;;22.75;63.75;100653.53;5031776;28;45700;-76
2022/09/09 11:19:46;;;;;;;;;1.00;1.00;;;;;22.85;63.00;100656.31;5016372;28;45373;-77
2022/09/09 11:22:30;;;;;;;;;2.00;2.00;;;;;22.98;62.50;100646.91;5020087;28;46236;-78
2022/09/09 11:25:13;;;;;;;;;2.00;2.00;;;;;23.13;62.23;100650.81;5025239;28;45506;-75
2022/09/09 11:27:58;;;;;;;;;0.00;0.00;;;;;23.15;61.99;100643.22;5017715;28;45295;-76
2022/09/09 11:30:57;;;;;;;;;3.00;3.00;;;;;23.19;61.63;100647.03;5032364;28;45395;-77
2022/09/09 11:33:59;;;;;;;;;2.00;2.00;;;;;23.15;61.19;100652.19;5025109;28;48588;-77
2022/09/09 11:36:42;;;;;;;;;3.00;1.00;;;;;23.01;61.85;100659.94;5015954;28;45336;-80
2022/09/09 11:39:29;;;;;;;;;2.00;2.00;;;;;22.86;61.91;100659.84;5028725;28;45342;-79
2022/09/09 11:42:18;;;;;;;;;3.00;2.00;;;;;22.78;64.03;100661.94;5016818;28;45342;-79
2022/09/09 11:44:44;;;;;;;;;3.00;3.00;;;;;22.86;63.15;100654.44;5019189;28;47883;-78
2022/09/09 11:47:30;;;;;;;;;3.00;2.00;;;;;23.00;63.35;100652.91;5020168;28;45353;-78
2022/09/09 11:50:32;;;;;;;;;1.67;1.67;;;;;23.25;62.76;100648.72;5026281;28;45174;-77